createdAt,value
2022-08-31T00:02:43.086Z,4.68
2022-08-31T00:05:12.317Z,5.30
2022-08-31T00:07:40.460Z,4.53
2022-08-31T00:10:14.465Z,5.60
2022-08-31T00:12:43.144Z,5.10
2022-08-31T00:15:14.292Z,4.43
2022-08-31T00:17:42.362Z,6.70
2022-08-31T00:20:32.501Z,5.25
2022-08-31T00:23:01.443Z,3.88
2022-08-31T00:25:29.084Z,6.22
2022-08-31T00:27:56.645Z,5.78
2022-08-31T00:30:24.871Z,5.03
2022-08-31T00:32:52.708Z,4.97
2022-08-31T00:35:21.753Z,6.25
2022-08-31T00:37:49.528Z,6.05
2022-08-31T00:40:17.350Z,4.85
2022-08-31T00:42:45.015Z,5.95
2022-08-31T00:45:12.974Z,4.40
2022-08-31T00:47:40.628Z,5.45
2022-08-31T00:50:11.506Z,6.78
2022-08-31T00:52:45.719Z,5.75
2022-08-31T00:55:17.924Z,7.22
2022-08-31T00:57:49.147Z,6.53
2022-08-31T01:00:20.411Z,5.93
2022-08-31T01:02:49.171Z,9.35
2022-08-31T01:05:17.448Z,7.05
2022-08-31T01:07:48.109Z,7.07
2022-08-31T01:10:17.830Z,7.07
2022-08-31T01:12:48.794Z,6.72
2022-08-31T01:15:18.765Z,6.22
2022-08-31T01:17:48.581Z,6.20
2022-08-31T01:20:23.240Z,4.55
2022-08-31T01:23:07.199Z,6.97
2022-08-31T01:25:36.588Z,6.55
2022-08-31T01:28:07.030Z,6.63
2022-08-31T01:30:35.611Z,5.90
2022-08-31T01:33:03.236Z,9.52
2022-08-31T01:35:31.439Z,7.35
2022-08-31T01:38:01.179Z,10.15
2022-08-31T01:40:34.298Z,6.38
2022-08-31T01:43:01.910Z,4.68
2022-08-31T01:45:30.375Z,6.57
2022-08-31T01:48:00.128Z,5.65
2022-08-31T01:50:27.790Z,5.78
2022-08-31T01:52:55.342Z,6.95
2022-08-31T01:55:24.251Z,7.10
2022-08-31T01:57:51.940Z,8.00
2022-08-31T02:00:20.121Z,5.93
2022-08-31T02:02:47.832Z,5.80
2022-08-31T02:05:15.545Z,5.07
2022-08-31T02:07:43.192Z,6.47
2022-08-31T02:10:11.060Z,6.25
2022-08-31T02:12:39.928Z,5.20
2022-08-31T02:15:09.110Z,8.10
2022-08-31T02:17:36.948Z,8.18
2022-08-31T02:20:06.719Z,7.13
2022-08-31T02:22:34.354Z,5.18
2022-08-31T02:25:02.000Z,8.57
2022-08-31T02:27:29.709Z,6.07
2022-08-31T02:29:58.720Z,5.63
2022-08-31T02:32:26.423Z,7.40
2022-08-31T02:34:54.160Z,6.47
2022-08-31T02:37:21.738Z,7.88
2022-08-31T02:39:50.369Z,7.05
2022-08-31T02:42:18.448Z,7.20
2022-08-31T02:44:46.410Z,6.20
2022-08-31T02:47:15.507Z,6.05
2022-08-31T02:49:43.177Z,5.78
2022-08-31T02:52:10.868Z,5.10
2022-08-31T02:54:38.510Z,5.28
2022-08-31T02:57:06.568Z,7.80
2022-08-31T02:59:34.383Z,5.80
2022-08-31T03:02:02.097Z,5.38
2022-08-31T03:04:31.963Z,7.82
2022-08-31T03:06:59.526Z,8.73
2022-08-31T03:09:28.238Z,9.80
2022-08-31T03:11:55.822Z,7.03
2022-08-31T03:14:23.420Z,7.40
2022-08-31T03:16:51.995Z,5.68
2022-08-31T03:19:19.801Z,5.90
2022-08-31T03:21:55.887Z,7.50
2022-08-31T03:24:27.136Z,7.13
2022-08-31T03:26:55.138Z,8.52
2022-08-31T03:29:22.723Z,5.68
2022-08-31T03:31:50.235Z,5.10
2022-08-31T03:34:17.845Z,7.22
2022-08-31T03:36:45.431Z,6.32
2022-08-31T03:39:14.419Z,7.15
2022-08-31T03:41:42.153Z,10.68
2022-08-31T03:44:09.841Z,6.93
2022-08-31T03:46:37.816Z,7.20
2022-08-31T03:49:06.285Z,6.25
2022-08-31T03:51:33.842Z,7.15
2022-08-31T03:54:01.408Z,5.93
2022-08-31T03:56:30.748Z,5.18
2022-08-31T03:58:58.330Z,6.32
2022-08-31T04:01:26.032Z,7.82
2022-08-31T04:03:53.743Z,6.80
2022-08-31T04:06:22.007Z,8.02
2022-08-31T04:08:49.617Z,7.68
2022-08-31T04:11:20.167Z,8.65
2022-08-31T04:14:08.501Z,6.03
2022-08-31T04:16:41.169Z,6.63
2022-08-31T04:19:09.956Z,6.82
2022-08-31T04:21:37.756Z,7.43
2022-08-31T04:24:05.523Z,8.27
2022-08-31T04:26:35.065Z,6.03
2022-08-31T04:29:12.244Z,8.23
2022-08-31T04:31:42.305Z,9.50
2022-08-31T04:34:10.163Z,10.65
2022-08-31T04:36:38.615Z,11.68
2022-08-31T04:39:07.568Z,8.40
2022-08-31T04:41:38.497Z,12.40
2022-08-31T04:44:06.685Z,9.27
2022-08-31T04:46:37.504Z,7.55
2022-08-31T04:49:07.965Z,7.25
2022-08-31T04:51:36.600Z,7.32
2022-08-31T04:54:06.379Z,7.20
2022-08-31T04:56:36.353Z,7.07
2022-08-31T04:59:07.859Z,7.88
2022-08-31T05:01:43.050Z,7.22
2022-08-31T05:04:14.386Z,9.23
2022-08-31T05:06:44.010Z,11.93
2022-08-31T05:09:15.275Z,10.60
2022-08-31T05:11:43.469Z,8.80
2022-08-31T05:14:11.310Z,10.15
2022-08-31T05:16:40.399Z,9.05
2022-08-31T05:19:08.266Z,9.02
2022-08-31T05:21:39.360Z,15.48
2022-08-31T05:24:10.019Z,11.95
2022-08-31T05:26:42.050Z,9.07
2022-08-31T05:31:38.904Z,8.75
2022-08-31T05:34:07.516Z,9.15
2022-08-31T05:36:35.947Z,10.32
2022-08-31T05:39:06.337Z,7.28
2022-08-31T05:41:33.961Z,6.28
2022-08-31T05:44:04.093Z,8.40
2022-08-31T05:46:32.085Z,7.47
2022-08-31T05:48:59.833Z,6.43
2022-08-31T05:51:27.497Z,6.35
2022-08-31T05:53:55.285Z,6.78
2022-08-31T05:56:25.556Z,8.63
2022-08-31T05:58:55.063Z,6.68
2022-08-31T06:01:26.523Z,16.50
2022-08-31T06:03:55.170Z,7.63
2022-08-31T06:06:22.737Z,10.93
2022-08-31T06:08:51.865Z,10.32
2022-08-31T06:11:23.308Z,8.65
2022-08-31T06:13:54.634Z,8.90
2022-08-31T06:16:23.279Z,10.18
2022-08-31T06:18:51.917Z,6.93
2022-08-31T06:21:22.105Z,7.22
2022-08-31T06:23:51.960Z,8.38
2022-08-31T06:26:21.524Z,10.90
2022-08-31T06:28:50.525Z,7.38
2022-08-31T06:31:24.991Z,11.60
2022-08-31T06:33:52.908Z,9.38
2022-08-31T06:36:22.540Z,6.68
2022-08-31T06:38:50.408Z,7.35
2022-08-31T06:41:20.351Z,8.50
2022-08-31T06:43:48.903Z,10.82
2022-08-31T06:46:17.819Z,9.25
2022-08-31T06:48:46.801Z,8.10
2022-08-31T06:51:14.887Z,10.18
2022-08-31T06:53:43.370Z,7.13
2022-08-31T06:56:20.802Z,8.48
2022-08-31T06:58:53.619Z,8.27
2022-08-31T07:01:35.734Z,7.20
2022-08-31T07:04:07.627Z,14.20
2022-08-31T07:06:37.953Z,15.70
2022-08-31T07:09:08.013Z,8.10
2022-08-31T07:11:41.008Z,9.07
2022-08-31T07:14:13.999Z,8.85
2022-08-31T07:16:46.110Z,12.07
2022-08-31T07:19:16.589Z,8.35
2022-08-31T07:21:46.596Z,7.93
2022-08-31T07:24:17.937Z,8.38
2022-08-31T07:26:47.595Z,7.30
2022-08-31T07:29:17.189Z,8.30
2022-08-31T07:31:46.401Z,9.52
2022-08-31T07:34:17.059Z,6.85
2022-08-31T07:37:02.101Z,8.68
2022-08-31T07:39:48.460Z,6.97
2022-08-31T07:42:18.399Z,8.82
2022-08-31T07:44:53.002Z,7.53
2022-08-31T07:47:22.673Z,8.98
2022-08-31T07:49:53.730Z,7.20
2022-08-31T07:52:24.180Z,9.95
2022-08-31T07:54:53.991Z,8.25
2022-08-31T07:57:25.707Z,7.93
2022-08-31T07:59:55.681Z,7.72
2022-08-31T08:02:23.674Z,7.53
2022-08-31T08:04:53.349Z,7.60
2022-08-31T08:07:21.572Z,7.72
2022-08-31T08:09:49.318Z,9.35
2022-08-31T08:12:19.168Z,8.88
2022-08-31T08:14:50.103Z,7.80
2022-08-31T08:17:17.660Z,8.00
2022-08-31T08:19:45.225Z,8.77
2022-08-31T08:22:17.040Z,8.50
2022-08-31T08:25:06.967Z,9.02
2022-08-31T08:27:35.687Z,8.68
2022-08-31T08:30:03.341Z,9.02
2022-08-31T08:32:31.867Z,8.23
2022-08-31T08:34:59.948Z,9.15
2022-08-31T08:37:54.501Z,9.35
2022-08-31T08:40:28.237Z,8.55
2022-08-31T08:42:56.064Z,7.50
2022-08-31T08:45:24.518Z,6.88
2022-08-31T08:47:54.462Z,9.45
2022-08-31T08:50:26.583Z,7.90
2022-08-31T08:52:57.248Z,10.88
2022-08-31T08:55:34.542Z,6.60
2022-08-31T08:58:05.947Z,8.38
2022-08-31T09:00:34.854Z,8.67
2022-08-31T09:03:12.237Z,11.68
2022-08-31T09:05:56.336Z,11.57
2022-08-31T09:08:41.579Z,9.68
2022-08-31T09:11:17.739Z,9.85
2022-08-31T09:13:57.135Z,9.98
2022-08-31T09:16:40.912Z,10.88
2022-08-31T09:19:11.811Z,9.25
2022-08-31T09:32:28.993Z,8.98
2022-08-31T09:35:03.110Z,10.73
2022-08-31T09:37:46.660Z,8.57
2022-08-31T09:40:26.203Z,7.05
2022-08-31T09:43:13.811Z,7.40
2022-08-31T09:45:59.077Z,9.15
2022-08-31T09:48:47.101Z,7.47
2022-08-31T09:51:25.287Z,7.93
2022-08-31T09:54:12.772Z,8.07
2022-08-31T09:56:56.148Z,9.40
2022-08-31T09:59:39.055Z,8.50
2022-08-31T10:02:15.487Z,8.05
2022-08-31T10:04:57.335Z,7.00
2022-08-31T10:07:44.482Z,9.85
2022-08-31T10:10:32.029Z,8.38
2022-08-31T10:13:06.635Z,8.48
2022-08-31T10:15:43.452Z,7.70
2022-08-31T10:18:18.649Z,15.48
2022-08-31T10:21:00.593Z,9.38
2022-08-31T10:23:38.302Z,8.50
2022-08-31T10:26:18.384Z,8.05
2022-08-31T10:28:54.636Z,10.77
2022-08-31T10:31:30.750Z,7.03
2022-08-31T10:34:21.284Z,9.20
2022-08-31T10:37:00.277Z,9.80
2022-08-31T10:39:37.663Z,5.60
2022-08-31T10:42:13.738Z,6.90
2022-08-31T10:44:50.015Z,7.78
2022-08-31T10:47:33.979Z,6.70
2022-08-31T10:50:07.039Z,9.27
2022-08-31T10:52:46.975Z,7.93
2022-08-31T10:55:34.580Z,10.57
2022-08-31T10:58:19.613Z,7.50
2022-08-31T11:00:55.219Z,8.60
2022-08-31T11:03:49.709Z,9.60
2022-08-31T11:06:25.993Z,7.18
2022-08-31T11:09:03.844Z,9.82
2022-08-31T11:11:43.466Z,7.60
2022-08-31T11:14:46.164Z,8.82
2022-08-31T11:17:38.653Z,6.45
2022-08-31T11:23:11.853Z,10.77
2022-08-31T11:26:30.753Z,7.30
2022-08-31T11:29:12.302Z,7.72
2022-08-31T11:31:44.932Z,9.47
2022-08-31T11:34:32.440Z,6.35
2022-08-31T11:37:08.324Z,8.63
2022-08-31T11:39:49.388Z,10.82
2022-08-31T11:42:56.119Z,6.35
2022-08-31T11:45:38.857Z,6.80
2022-08-31T11:48:13.646Z,11.02
2022-08-31T11:51:09.300Z,14.13
2022-08-31T11:53:45.842Z,7.35
2022-08-31T11:56:45.126Z,9.77
2022-08-31T11:59:28.401Z,6.70
2022-08-31T12:02:29.181Z,6.97
2022-08-31T12:05:08.437Z,7.57
2022-08-31T12:07:47.510Z,7.13
2022-08-31T12:10:40.183Z,6.03
2022-08-31T12:16:48.428Z,5.90
2022-08-31T12:20:02.645Z,7.78
2022-08-31T12:23:28.688Z,8.52
2022-08-31T12:26:38.089Z,6.97
2022-08-31T12:29:38.702Z,9.27
2022-08-31T12:32:37.097Z,5.80
2022-08-31T12:35:32.446Z,6.18
2022-08-31T12:38:07.216Z,7.03
2022-08-31T12:40:42.925Z,6.60
2022-08-31T12:46:41.663Z,7.35
2022-08-31T12:49:26.080Z,6.38
2022-08-31T12:52:04.433Z,7.95
2022-08-31T12:55:24.931Z,6.05
2022-08-31T12:58:12.578Z,3.75
2022-08-31T13:00:43.994Z,5.30
2022-08-31T13:03:27.226Z,4.38
2022-08-31T13:06:19.946Z,3.80
2022-08-31T13:08:57.302Z,4.60
2022-08-31T13:11:39.888Z,3.47
2022-08-31T13:14:32.141Z,3.60
2022-08-31T13:17:09.013Z,4.50
2022-08-31T13:19:40.915Z,4.80
2022-08-31T13:22:18.687Z,3.67
2022-08-31T13:24:55.814Z,4.15
2022-08-31T13:27:29.604Z,3.33
2022-08-31T13:30:22.650Z,4.93
2022-08-31T13:32:58.705Z,4.60
2022-08-31T13:35:39.015Z,3.90
2022-08-31T13:38:22.119Z,5.47
2022-08-31T13:41:00.018Z,2.58
2022-08-31T13:43:37.512Z,2.55
2022-08-31T13:46:14.313Z,3.10
2022-08-31T13:48:45.720Z,4.22
2022-08-31T13:51:24.251Z,3.97
2022-08-31T13:54:23.280Z,2.95
2022-08-31T13:57:03.802Z,4.75
2022-08-31T13:59:41.148Z,4.70
2022-08-31T14:02:45.156Z,5.07
2022-08-31T14:05:38.798Z,4.18
2022-08-31T14:08:32.504Z,3.33
2022-08-31T14:11:10.654Z,4.20
2022-08-31T14:13:51.453Z,2.92
2022-08-31T14:16:30.713Z,3.88
2022-08-31T14:19:02.357Z,2.83
2022-08-31T14:21:39.337Z,6.28
2022-08-31T14:24:12.416Z,5.30
2022-08-31T14:26:46.831Z,3.55
2022-08-31T14:29:19.173Z,4.35
2022-08-31T14:31:53.269Z,5.97
2022-08-31T14:34:24.963Z,4.10
2022-08-31T14:36:57.897Z,2.53
2022-08-31T14:39:30.222Z,4.82
2022-08-31T14:42:01.818Z,4.13
2022-08-31T14:44:33.748Z,2.95
2022-08-31T14:47:02.993Z,4.03
2022-08-31T14:49:36.260Z,5.88
2022-08-31T14:52:06.785Z,3.20
2022-08-31T14:54:39.133Z,4.70
2022-08-31T14:59:48.117Z,4.10
2022-08-31T15:02:21.503Z,3.72
2022-08-31T15:04:54.503Z,6.13
2022-08-31T15:07:23.968Z,3.78
2022-08-31T15:09:55.401Z,29.27
2022-08-31T15:12:24.676Z,6.10
2022-08-31T15:15:00.234Z,4.75
2022-08-31T15:17:32.681Z,5.22
2022-08-31T15:20:05.415Z,5.15
2022-08-31T15:22:40.018Z,2.75
2022-08-31T15:25:15.324Z,5.90
2022-08-31T15:27:49.163Z,5.82
2022-08-31T15:30:23.223Z,2.85
2022-08-31T15:32:53.226Z,2.80
2022-08-31T15:35:24.825Z,5.22
2022-08-31T15:38:03.241Z,4.22
2022-08-31T15:40:46.802Z,3.03
2022-08-31T15:43:16.211Z,3.22
2022-08-31T15:45:48.069Z,4.75
2022-08-31T15:51:05.967Z,4.18
2022-08-31T15:53:42.851Z,5.63
2022-08-31T15:56:13.407Z,3.15
2022-08-31T15:58:42.479Z,2.90
2022-08-31T16:01:19.125Z,4.32
2022-08-31T16:03:52.882Z,3.28
2022-08-31T16:06:24.699Z,5.45
2022-08-31T16:08:58.134Z,6.57
2022-08-31T16:11:31.761Z,3.17
2022-08-31T16:14:01.250Z,4.57
2022-08-31T16:16:37.020Z,2.92
2022-08-31T16:19:06.259Z,3.63
2022-08-31T16:21:40.508Z,3.72
2022-08-31T16:24:10.437Z,3.55
2022-08-31T16:26:41.375Z,3.67
2022-08-31T16:29:14.799Z,3.35
2022-08-31T16:31:52.851Z,3.45
2022-08-31T16:34:26.719Z,3.38
2022-08-31T16:36:58.166Z,6.55
2022-08-31T16:39:29.304Z,3.83
2022-08-31T16:41:57.785Z,4.13
2022-08-31T16:44:36.521Z,5.32
2022-08-31T16:47:09.693Z,4.57
2022-08-31T16:49:42.451Z,2.92
2022-08-31T16:52:15.897Z,5.95
2022-08-31T16:54:48.747Z,4.13
2022-08-31T16:57:23.225Z,5.72
2022-08-31T16:59:53.094Z,3.50
2022-08-31T17:02:28.002Z,4.47
2022-08-31T17:05:01.267Z,3.65
2022-08-31T17:07:30.374Z,3.95
2022-08-31T17:10:02.378Z,3.22
2022-08-31T17:12:35.425Z,4.15
2022-08-31T17:15:03.871Z,4.07
2022-08-31T17:17:35.476Z,16.60
2022-08-31T17:20:06.892Z,5.45
2022-08-31T17:22:39.317Z,4.00
2022-08-31T17:25:09.801Z,3.85
2022-08-31T17:27:38.367Z,7.85
2022-08-31T17:30:08.461Z,4.97
2022-08-31T17:32:44.926Z,4.35
2022-08-31T17:35:19.457Z,4.85
2022-08-31T17:37:49.259Z,3.55
2022-08-31T17:40:22.529Z,4.22
2022-08-31T17:42:52.971Z,6.15
2022-08-31T17:45:24.017Z,5.78
2022-08-31T17:47:57.313Z,5.00
2022-08-31T17:50:27.037Z,4.00
2022-08-31T17:52:55.393Z,4.40
2022-08-31T17:55:23.870Z,4.95
2022-08-31T17:57:51.857Z,5.45
2022-08-31T18:00:20.452Z,3.67
2022-08-31T18:02:49.692Z,7.65
2022-08-31T18:05:19.503Z,4.88
2022-08-31T18:07:50.137Z,5.57
2022-08-31T18:10:18.824Z,7.18
2022-08-31T18:12:47.648Z,5.45
2022-08-31T18:15:19.103Z,7.60
2022-08-31T18:17:47.820Z,16.25
2022-08-31T18:20:16.120Z,9.95
2022-08-31T18:22:50.073Z,7.10
2022-08-31T18:25:20.470Z,9.75
2022-08-31T18:27:49.078Z,6.85
2022-08-31T18:30:18.374Z,6.75
2022-08-31T18:32:48.411Z,9.57
2022-08-31T18:35:17.788Z,7.45
2022-08-31T18:37:47.125Z,6.78
2022-08-31T18:40:33.025Z,6.90
2022-08-31T18:43:18.975Z,6.15
2022-08-31T18:45:49.321Z,6.20
2022-08-31T18:48:25.984Z,5.63
2022-08-31T18:50:55.235Z,4.63
2022-08-31T18:53:27.902Z,4.43
2022-08-31T18:55:59.535Z,3.65
2022-08-31T18:58:28.763Z,3.78
2022-08-31T19:00:58.675Z,4.18
2022-08-31T19:03:27.605Z,3.35
2022-08-31T19:05:56.739Z,7.28
2022-08-31T19:08:26.597Z,5.57
2022-08-31T19:10:57.381Z,4.00
2022-08-31T19:13:28.698Z,5.25
2022-08-31T19:16:01.216Z,4.93
2022-08-31T19:18:31.534Z,4.05
2022-08-31T19:21:00.334Z,4.00
2022-08-31T19:23:29.918Z,6.80
2022-08-31T19:25:57.671Z,5.45
2022-08-31T19:28:25.373Z,3.63
2022-08-31T19:30:53.196Z,5.82
2022-08-31T19:33:24.856Z,4.13
2022-08-31T19:35:59.528Z,4.72
2022-08-31T19:38:32.667Z,4.78
2022-08-31T19:41:00.867Z,4.35
2022-08-31T19:43:53.659Z,3.10
2022-08-31T19:46:26.462Z,2.95
2022-08-31T19:48:56.399Z,3.10
2022-08-31T19:51:24.476Z,3.28
2022-08-31T19:53:55.152Z,3.35
2022-08-31T19:56:29.563Z,2.80
2022-08-31T19:58:58.980Z,6.72
2022-08-31T20:01:32.892Z,3.63
2022-08-31T20:04:02.254Z,2.35
2022-08-31T20:06:31.667Z,4.95
2022-08-31T20:09:01.013Z,2.55
2022-08-31T20:11:31.775Z,4.13
2022-08-31T20:14:00.463Z,3.75
2022-08-31T20:16:33.696Z,2.42
2022-08-31T20:19:04.534Z,3.30
2022-08-31T20:21:34.605Z,2.20
2022-08-31T20:24:06.762Z,3.45
2022-08-31T20:26:47.210Z,3.00
2022-08-31T20:29:19.834Z,2.60
2022-08-31T20:31:49.874Z,3.15
2022-08-31T20:34:19.590Z,2.58
2022-08-31T20:36:50.105Z,2.63
2022-08-31T20:39:20.254Z,3.28
2022-08-31T20:41:49.490Z,2.90
2022-08-31T20:44:20.357Z,3.97
2022-08-31T20:47:07.974Z,5.20
2022-08-31T20:49:39.090Z,3.25
2022-08-31T20:52:07.984Z,2.75
2022-08-31T20:54:37.442Z,4.10
2022-08-31T20:57:09.087Z,3.75
2022-08-31T20:59:37.023Z,3.30
2022-08-31T21:02:07.786Z,3.50
2022-08-31T21:04:37.874Z,3.85
2022-08-31T21:07:06.576Z,5.60
2022-08-31T21:09:34.645Z,4.05
2022-08-31T21:12:07.179Z,4.30
2022-08-31T21:14:36.580Z,3.40
2022-08-31T21:17:06.122Z,5.13
2022-08-31T21:19:38.391Z,5.25
2022-08-31T21:22:07.599Z,4.35
2022-08-31T21:24:36.130Z,4.45
2022-08-31T21:27:07.877Z,4.65
2022-08-31T21:29:36.930Z,4.28
2022-08-31T21:32:06.837Z,4.70
2022-08-31T21:34:35.040Z,4.55
2022-08-31T21:37:02.716Z,5.13
2022-08-31T21:39:32.405Z,4.75
2022-08-31T21:42:00.028Z,5.57
2022-08-31T21:44:28.959Z,5.07
2022-08-31T21:46:56.748Z,5.80
2022-08-31T21:49:24.412Z,4.40
2022-08-31T21:51:54.214Z,7.65
2022-08-31T21:54:26.090Z,4.75
2022-08-31T21:56:55.852Z,5.78
2022-08-31T21:59:25.421Z,7.85
2022-08-31T22:01:59.182Z,7.93
2022-08-31T22:04:28.045Z,9.43
2022-08-31T22:06:56.362Z,11.38
2022-08-31T22:09:24.826Z,11.02
2022-08-31T22:11:56.508Z,10.80
2022-08-31T22:14:28.203Z,11.70
2022-08-31T22:16:59.037Z,10.15
2022-08-31T22:19:28.478Z,9.45
2022-08-31T22:21:58.984Z,10.65
2022-08-31T22:24:29.185Z,12.50
2022-08-31T22:26:58.997Z,9.73
2022-08-31T22:29:29.359Z,10.63
2022-08-31T22:32:00.761Z,10.27
2022-08-31T22:34:28.666Z,10.88
2022-08-31T22:36:57.372Z,11.65
2022-08-31T22:39:27.968Z,12.43
2022-08-31T22:41:56.138Z,12.73
2022-08-31T22:44:27.428Z,11.18
2022-08-31T22:46:56.822Z,13.32
2022-08-31T22:49:27.022Z,13.70
2022-08-31T22:51:55.201Z,16.80
2022-08-31T22:54:23.162Z,14.55
2022-08-31T22:56:51.673Z,14.48
2022-08-31T22:59:26.118Z,11.70
2022-08-31T23:01:55.923Z,11.95
2022-08-31T23:04:27.538Z,11.55
2022-08-31T23:06:57.348Z,13.85
2022-08-31T23:09:27.591Z,10.90
2022-08-31T23:11:56.393Z,13.48
2022-08-31T23:14:24.530Z,15.27
2022-08-31T23:16:55.148Z,11.50
2022-08-31T23:19:26.804Z,12.10
2022-08-31T23:21:57.699Z,18.25
2022-08-31T23:24:27.926Z,13.82
2022-08-31T23:27:01.620Z,13.85
2022-08-31T23:29:32.107Z,16.25
2022-08-31T23:32:00.897Z,12.90
2022-08-31T23:34:29.806Z,10.82
2022-08-31T23:36:57.566Z,14.40
2022-08-31T23:39:25.438Z,15.52
2022-08-31T23:41:53.480Z,14.50
2022-08-31T23:44:22.201Z,13.15
2022-08-31T23:46:50.357Z,13.90
2022-08-31T23:49:20.565Z,17.55
2022-08-31T23:51:50.447Z,10.07
2022-08-31T23:54:18.438Z,10.95
2022-08-31T23:56:48.798Z,13.32
2022-08-31T23:59:19.747Z,13.30
